sensor_id;sensor_type;location;lat;lon;timestamp;pressure;altitude;pressure_sealevel;temperature;humidity
24825;BME280;12910;57.690;11.974;2022-08-01T00:00:25;100268.97;;;18.12;100.00
24825;BME280;12910;57.690;11.974;2022-08-01T00:02:51;100274.94;;;18.16;100.00
24825;BME280;12910;57.690;11.974;2022-08-01T00:05:16;100274.94;;;18.17;100.00
24825;BME280;12910;57.690;11.974;2022-08-01T00:07:42;100277.47;;;18.19;100.00
24825;BME280;12910;57.690;11.974;2022-08-01T00:10:10;100270.53;;;18.21;100.00
24825;BME280;12910;57.690;11.974;2022-08-01T00:12:37;100278.31;;;18.21;100.00
24825;BME280;12910;57.690;11.974;2022-08-01T00:15:04;100278.41;;;18.16;100.00
24825;BME280;12910;57.690;11.974;2022-08-01T00:17:31;100271.53;;;18.14;100.00
24825;BME280;12910;57.690;11.974;2022-08-01T00:19:56;100279.34;;;18.12;100.00
24825;BME280;12910;57.690;11.974;2022-08-01T00:22:22;100275.09;;;18.10;100.00
24825;BME280;12910;57.690;11.974;2022-08-01T00:24:47;100277.00;;;18.00;100.00
24825;BME280;12910;57.690;11.974;2022-08-01T00:27:13;100283.97;;;17.98;100.00
24825;BME280;12910;57.690;11.974;2022-08-01T00:29:38;100277.94;;;17.94;100.00
24825;BME280;12910;57.690;11.974;2022-08-01T00:32:04;100286.69;;;17.90;100.00
24825;BME280;12910;57.690;11.974;2022-08-01T00:34:29;100279.78;;;17.89;100.00
24825;BME280;12910;57.690;11.974;2022-08-01T00:36:55;100283.25;;;17.88;100.00
24825;BME280;12910;57.690;11.974;2022-08-01T00:39:20;100284.97;;;17.89;100.00
24825;BME280;12910;57.690;11.974;2022-08-01T00:41:45;100275.53;;;17.86;100.00
24825;BME280;12910;57.690;11.974;2022-08-01T00:44:11;100278.84;;;17.91;100.00
24825;BME280;12910;57.690;11.974;2022-08-01T00:46:36;100283.13;;;17.94;100.00
24825;BME280;12910;57.690;11.974;2022-08-01T00:49:02;100280.59;;;17.91;100.00
24825;BME280;12910;57.690;11.974;2022-08-01T00:51:28;100274.56;;;17.90;100.00
24825;BME280;12910;57.690;11.974;2022-08-01T00:53:54;100265.88;;;17.93;100.00
24825;BME280;12910;57.690;11.974;2022-08-01T00:56:20;100272.75;;;17.94;100.00
24825;BME280;12910;57.690;11.974;2022-08-01T00:58:46;100255.69;;;17.84;100.00
24825;BME280;12910;57.690;11.974;2022-08-01T01:01:11;100254.78;;;17.86;100.00
24825;BME280;12910;57.690;11.974;2022-08-01T01:03:37;100254.78;;;17.86;100.00
24825;BME280;12910;57.690;11.974;2022-08-01T01:06:26;100270.34;;;17.86;100.00
24825;BME280;12910;57.690;11.974;2022-08-01T01:09:02;100271.25;;;17.84;100.00
24825;BME280;12910;57.690;11.974;2022-08-01T01:11:32;100272.09;;;17.84;100.00
24825;BME280;12910;57.690;11.974;2022-08-01T01:14:04;100268.75;;;17.79;100.00
24825;BME280;12910;57.690;11.974;2022-08-01T01:16:36;100272.16;;;17.81;100.00
24825;BME280;12910;57.690;11.974;2022-08-01T01:19:09;100286.84;;;17.81;100.00
24825;BME280;12910;57.690;11.974;2022-08-01T01:29:52;100272.22;;;17.76;100.00
24825;BME280;12910;57.690;11.974;2022-08-01T01:32:23;100280.06;;;17.75;100.00
24825;BME280;12910;57.690;11.974;2022-08-01T01:34:54;100280.09;;;17.73;100.00
24825;BME280;12910;57.690;11.974;2022-08-01T01:37:22;100276.63;;;17.74;100.00
24825;BME280;12910;57.690;11.974;2022-08-01T01:39:50;100280.06;;;17.75;100.00
24825;BME280;12910;57.690;11.974;2022-08-01T01:42:17;100272.28;;;17.75;100.00
24825;BME280;12910;57.690;11.974;2022-08-01T01:44:45;100272.31;;;17.73;100.00
24825;BME280;12910;57.690;11.974;2022-08-01T01:47:14;100271.34;;;17.78;100.00
24825;BME280;12910;57.690;11.974;2022-08-01T01:49:43;100268.81;;;17.76;100.00
24825;BME280;12910;57.690;11.974;2022-08-01T01:52:12;100267.09;;;17.75;100.00
24825;BME280;12910;57.690;11.974;2022-08-01T01:54:45;100267.97;;;17.74;100.00
24825;BME280;12910;57.690;11.974;2022-08-01T01:57:12;100267.19;;;17.70;100.00
24825;BME280;12910;57.690;11.974;2022-08-01T01:59:40;100268.88;;;17.71;100.00
24825;BME280;12910;57.690;11.974;2022-08-01T02:02:07;100270.53;;;17.75;100.00
24825;BME280;12910;57.690;11.974;2022-08-01T02:04:36;100267.94;;;17.75;100.00
24825;BME280;12910;57.690;11.974;2022-08-01T02:07:03;100261.94;;;17.72;100.00
24825;BME280;12910;57.690;11.974;2022-08-01T02:09:31;100260.25;;;17.71;100.00
24825;BME280;12910;57.690;11.974;2022-08-01T02:11:59;100244.00;;;17.63;100.00
24825;BME280;12910;57.690;11.974;2022-08-01T02:14:26;100259.44;;;17.67;100.00
24825;BME280;12910;57.690;11.974;2022-08-01T02:16:54;100251.72;;;17.66;100.00
24825;BME280;12910;57.690;11.974;2022-08-01T02:19:22;100251.75;;;17.63;100.00
24825;BME280;12910;57.690;11.974;2022-08-01T02:21:55;100259.53;;;17.64;100.00
24825;BME280;12910;57.690;11.974;2022-08-01T02:24:34;100254.25;;;17.67;100.00
24825;BME280;12910;57.690;11.974;2022-08-01T02:27:06;100244.81;;;17.65;100.00
24825;BME280;12910;57.690;11.974;2022-08-01T02:29:52;100252.50;;;17.69;100.00
24825;BME280;12910;57.690;11.974;2022-08-01T02:32:30;100248.25;;;17.65;100.00
24825;BME280;12910;57.690;11.974;2022-08-01T02:34:56;100247.38;;;17.66;100.00
24825;BME280;12910;57.690;11.974;2022-08-01T02:37:23;100249.97;;;17.66;100.00
24825;BME280;12910;57.690;11.974;2022-08-01T02:39:53;100256.91;;;17.66;100.00
24825;BME280;12910;57.690;11.974;2022-08-01T02:42:20;100245.75;;;17.62;100.00
24825;BME280;12910;57.690;11.974;2022-08-01T02:44:48;100239.75;;;17.58;100.00
24825;BME280;12910;57.690;11.974;2022-08-01T02:47:15;100261.28;;;17.62;100.00
24825;BME280;12910;57.690;11.974;2022-08-01T02:49:47;100255.31;;;17.57;100.00
24825;BME280;12910;57.690;11.974;2022-08-01T02:52:15;100249.25;;;17.58;100.00
24825;BME280;12910;57.690;11.974;2022-08-01T02:54:43;100253.50;;;17.62;100.00
24825;BME280;12910;57.690;11.974;2022-08-01T02:57:11;100244.06;;;17.58;100.00
24825;BME280;12910;57.690;11.974;2022-08-01T02:59:38;100252.00;;;17.50;100.00
24825;BME280;12910;57.690;11.974;2022-08-01T03:02:05;100246.00;;;17.47;100.00
24825;BME280;12910;57.690;11.974;2022-08-01T03:04:33;100243.59;;;17.39;100.00
24825;BME280;12910;57.690;11.974;2022-08-01T03:07:02;100240.03;;;17.44;100.00
24825;BME280;12910;57.690;11.974;2022-08-01T03:09:29;100242.53;;;17.48;100.00
24825;BME280;12910;57.690;11.974;2022-08-01T03:11:59;100239.03;;;17.52;100.00
24825;BME280;12910;57.690;11.974;2022-08-01T03:14:27;100227.06;;;17.44;100.00
24825;BME280;12910;57.690;11.974;2022-08-01T03:16:54;100234.84;;;17.43;100.00
24825;BME280;12910;57.690;11.974;2022-08-01T03:19:22;100233.97;;;17.46;100.00
24825;BME280;12910;57.690;11.974;2022-08-01T03:21:49;100229.59;;;17.48;100.00
24825;BME280;12910;57.690;11.974;2022-08-01T03:24:16;100233.09;;;17.45;100.00
24825;BME280;12910;57.690;11.974;2022-08-01T03:26:44;100229.66;;;17.43;100.00
24825;BME280;12910;57.690;11.974;2022-08-01T03:29:16;100227.97;;;17.42;100.00
24825;BME280;12910;57.690;11.974;2022-08-01T03:31:44;100235.66;;;17.47;100.00
24825;BME280;12910;57.690;11.974;2022-08-01T03:34:10;100230.50;;;17.45;100.00
24825;BME280;12910;57.690;11.974;2022-08-01T03:37:02;100223.66;;;17.42;100.00
24825;BME280;12910;57.690;11.974;2022-08-01T03:39:28;100223.59;;;17.44;100.00
24825;BME280;12910;57.690;11.974;2022-08-01T03:41:59;100228.78;;;17.44;100.00
24825;BME280;12910;57.690;11.974;2022-08-01T03:44:27;100235.72;;;17.43;100.00
24825;BME280;12910;57.690;11.974;2022-08-01T03:47:05;100220.28;;;17.37;100.00
24825;BME280;12910;57.690;11.974;2022-08-01T03:49:33;100225.41;;;17.40;100.00
24825;BME280;12910;57.690;11.974;2022-08-01T03:52:04;100224.44;;;17.46;100.00
24825;BME280;12910;57.690;11.974;2022-08-01T03:54:35;100216.66;;;17.46;100.00
24825;BME280;12910;57.690;11.974;2022-08-01T03:57:01;100225.19;;;17.53;100.00
24825;BME280;12910;57.690;11.974;2022-08-01T03:59:28;100224.31;;;17.54;100.00
24825;BME280;12910;57.690;11.974;2022-08-01T04:01:55;100219.22;;;17.49;100.00
24825;BME280;12910;57.690;11.974;2022-08-01T04:04:21;100220.00;;;17.51;100.00
24825;BME280;12910;57.690;11.974;2022-08-01T04:06:47;100225.19;;;17.53;100.00
24825;BME280;12910;57.690;11.974;2022-08-01T04:09:16;100218.28;;;17.52;100.00
24825;BME280;12910;57.690;11.974;2022-08-01T04:11:41;100223.53;;;17.49;100.00
24825;BME280;12910;57.690;11.974;2022-08-01T04:14:07;100216.56;;;17.51;100.00
24825;BME280;12910;57.690;11.974;2022-08-01T04:16:32;100220.09;;;17.47;100.00
24825;BME280;12910;57.690;11.974;2022-08-01T04:18:58;100223.59;;;17.46;100.00
24825;BME280;12910;57.690;11.974;2022-08-01T04:21:26;100222.69;;;17.48;100.00
24825;BME280;12910;57.690;11.974;2022-08-01T04:23:57;100214.03;;;17.49;100.00
24825;BME280;12910;57.690;11.974;2022-08-01T04:26:24;100217.53;;;17.45;100.00
24825;BME280;12910;57.690;11.974;2022-08-01T04:28:52;100217.59;;;17.43;100.00
24825;BME280;12910;57.690;11.974;2022-08-01T04:31:18;100220.97;;;17.47;100.00
24825;BME280;12910;57.690;11.974;2022-08-01T04:33:47;100208.81;;;17.51;100.00
24825;BME280;12910;57.690;11.974;2022-08-01T04:36:17;100210.50;;;17.52;100.00
24825;BME280;12910;57.690;11.974;2022-08-01T04:38:45;100217.31;;;17.56;100.00
24825;BME280;12910;57.690;11.974;2022-08-01T04:41:14;100223.44;;;17.55;100.00
24825;BME280;12910;57.690;11.974;2022-08-01T04:43:40;100222.47;;;17.59;100.00
24825;BME280;12910;57.690;11.974;2022-08-01T04:46:07;100207.88;;;17.55;100.00
24825;BME280;12910;57.690;11.974;2022-08-01T04:48:36;100222.50;;;17.56;100.00
24825;BME280;12910;57.690;11.974;2022-08-01T04:51:03;100215.63;;;17.56;100.00
24825;BME280;12910;57.690;11.974;2022-08-01T04:53:28;100219.03;;;17.58;100.00
24825;BME280;12910;57.690;11.974;2022-08-01T04:55:53;100214.75;;;17.56;100.00
24825;BME280;12910;57.690;11.974;2022-08-01T04:58:19;100217.41;;;17.53;100.00
24825;BME280;12910;57.690;11.974;2022-08-01T05:00:45;100226.91;;;17.54;100.00
24825;BME280;12910;57.690;11.974;2022-08-01T05:03:10;100214.91;;;17.47;100.00
24825;BME280;12910;57.690;11.974;2022-08-01T05:05:36;100233.88;;;17.49;100.00
24825;BME280;12910;57.690;11.974;2022-08-01T05:08:01;100233.97;;;17.44;100.00
24825;BME280;12910;57.690;11.974;2022-08-01T05:10:27;100240.78;;;17.50;100.00
24825;BME280;12910;57.690;11.974;2022-08-01T05:12:53;100233.88;;;17.49;100.00
24825;BME280;12910;57.690;11.974;2022-08-01T05:15:18;100233.88;;;17.50;100.00
24825;BME280;12910;57.690;11.974;2022-08-01T05:17:44;100237.34;;;17.48;100.00
24825;BME280;12910;57.690;11.974;2022-08-01T05:20:10;100235.66;;;17.47;100.00
24825;BME280;12910;57.690;11.974;2022-08-01T05:22:36;100236.56;;;17.46;100.00
24825;BME280;12910;57.690;11.974;2022-08-01T05:25:02;100232.25;;;17.44;100.00
24825;BME280;12910;57.690;11.974;2022-08-01T05:27:30;100227.16;;;17.38;100.00
24825;BME280;12910;57.690;11.974;2022-08-01T05:29:55;100238.31;;;17.43;100.00
24825;BME280;12910;57.690;11.974;2022-08-01T05:32:21;100239.19;;;17.42;100.00
24825;BME280;12910;57.690;11.974;2022-08-01T05:34:46;100245.25;;;17.41;100.00
24825;BME280;12910;57.690;11.974;2022-08-01T05:37:11;100252.31;;;17.33;100.00
24825;BME280;12910;57.690;11.974;2022-08-01T05:39:37;100255.81;;;17.31;100.00
24825;BME280;12910;57.690;11.974;2022-08-01T05:42:02;100240.38;;;17.24;100.00
24825;BME280;12910;57.690;11.974;2022-08-01T05:44:28;100233.56;;;17.19;100.00
24825;BME280;12910;57.690;11.974;2022-08-01T05:46:53;100236.09;;;17.22;100.00
24825;BME280;12910;57.690;11.974;2022-08-01T05:49:18;100225.66;;;17.26;100.00
24825;BME280;12910;57.690;11.974;2022-08-01T05:51:44;100230.81;;;17.28;100.00
24825;BME280;12910;57.690;11.974;2022-08-01T05:54:09;100218.69;;;17.30;100.00
24825;BME280;12910;57.690;11.974;2022-08-01T05:56:35;100217.00;;;17.27;100.00
24825;BME280;12910;57.690;11.974;2022-08-01T05:59:01;100210.16;;;17.25;100.00
24825;BME280;12910;57.690;11.974;2022-08-01T06:01:26;100200.75;;;17.19;100.00
24825;BME280;12910;57.690;11.974;2022-08-01T06:03:52;100206.66;;;17.27;100.00
24825;BME280;12910;57.690;11.974;2022-08-01T06:06:20;100199.81;;;17.23;100.00
24825;BME280;12910;57.690;11.974;2022-08-01T06:08:45;100199.53;;;17.39;100.00
24825;BME280;12910;57.690;11.974;2022-08-01T06:11:10;100200.97;;;17.54;100.00
24825;BME280;12910;57.690;11.974;2022-08-01T06:13:36;100194.78;;;17.61;100.00
24825;BME280;12910;57.690;11.974;2022-08-01T06:16:01;100181.88;;;17.58;100.00
24825;BME280;12910;57.690;11.974;2022-08-01T06:18:27;100177.47;;;17.62;100.00
24825;BME280;12910;57.690;11.974;2022-08-01T06:20:52;100180.88;;;17.65;100.00
24825;BME280;12910;57.690;11.974;2022-08-01T06:23:17;100179.28;;;17.59;100.00
24825;BME280;12910;57.690;11.974;2022-08-01T06:25:43;100178.28;;;17.65;100.00
24825;BME280;12910;57.690;11.974;2022-08-01T06:28:09;100190.25;;;17.71;100.00
24825;BME280;12910;57.690;11.974;2022-08-01T06:30:34;100196.47;;;17.64;100.00
24825;BME280;12910;57.690;11.974;2022-08-01T06:33:00;100205.09;;;17.64;100.00
24825;BME280;12910;57.690;11.974;2022-08-01T06:35:26;100199.28;;;17.51;100.00
24825;BME280;12910;57.690;11.974;2022-08-01T06:37:52;100193.31;;;17.49;100.00
24825;BME280;12910;57.690;11.974;2022-08-01T06:40:17;100195.06;;;17.47;100.00
24825;BME280;12910;57.690;11.974;2022-08-01T06:42:44;100197.69;;;17.46;100.00
24825;BME280;12910;57.690;11.974;2022-08-01T06:45:11;100195.91;;;17.48;100.00
24825;BME280;12910;57.690;11.974;2022-08-01T06:47:38;100196.91;;;17.40;100.00
24825;BME280;12910;57.690;11.974;2022-08-01T06:50:05;100191.75;;;17.39;100.00
24825;BME280;12910;57.690;11.974;2022-08-01T06:52:31;100198.66;;;17.38;100.00
24825;BME280;12910;57.690;11.974;2022-08-01T06:54:56;100189.81;;;17.50;100.00
24825;BME280;12910;57.690;11.974;2022-08-01T06:57:22;100182.94;;;17.49;100.00
24825;BME280;12910;57.690;11.974;2022-08-01T06:59:47;100186.28;;;17.54;100.00
24825;BME280;12910;57.690;11.974;2022-08-01T07:02:12;100190.53;;;17.57;100.00
24825;BME280;12910;57.690;11.974;2022-08-01T07:04:38;100192.31;;;17.55;100.00
24825;BME280;12910;57.690;11.974;2022-08-01T07:07:03;100191.31;;;17.62;100.00
24825;BME280;12910;57.690;11.974;2022-08-01T07:09:29;100192.84;;;17.72;100.00
24825;BME280;12910;57.690;11.974;2022-08-01T07:11:54;100185.84;;;17.76;100.00
24825;BME280;12910;57.690;11.974;2022-08-01T07:14:21;100189.41;;;17.70;100.00
24825;BME280;12910;57.690;11.974;2022-08-01T07:16:47;100192.06;;;17.67;100.00
24825;BME280;12910;57.690;11.974;2022-08-01T07:19:13;100193.72;;;17.71;100.00
24825;BME280;12910;57.690;11.974;2022-08-01T07:21:38;100186.72;;;17.75;100.00
24825;BME280;12910;57.690;11.974;2022-08-01T07:24:05;100188.28;;;17.84;100.00
24825;BME280;12910;57.690;11.974;2022-08-01T07:26:31;100193.59;;;17.78;100.00
24825;BME280;12910;57.690;11.974;2022-08-01T07:28:56;100190.44;;;17.63;100.00
24825;BME280;12910;57.690;11.974;2022-08-01T07:31:21;100189.41;;;17.70;100.00
24825;BME280;12910;57.690;11.974;2022-08-01T07:33:48;100188.72;;;17.62;100.00
24825;BME280;12910;57.690;11.974;2022-08-01T07:36:13;100185.25;;;17.63;100.00
24825;BME280;12910;57.690;11.974;2022-08-01T07:38:38;100180.91;;;17.64;100.00
24825;BME280;12910;57.690;11.974;2022-08-01T07:41:04;100180.84;;;17.67;100.00
24825;BME280;12910;57.690;11.974;2022-08-01T07:43:29;100189.28;;;17.76;100.00
24825;BME280;12910;57.690;11.974;2022-08-01T07:45:55;100184.94;;;17.79;100.00
24825;BME280;12910;57.690;11.974;2022-08-01T07:48:20;100183.91;;;17.86;100.00
24825;BME280;12910;57.690;11.974;2022-08-01T07:50:49;100178.66;;;17.89;100.00
24825;BME280;12910;57.690;11.974;2022-08-01T07:53:15;100175.94;;;17.95;100.00
24825;BME280;12910;57.690;11.974;2022-08-01T07:55:40;100182.84;;;17.98;100.00
24825;BME280;12910;57.690;11.974;2022-08-01T07:58:05;100174.97;;;18.01;100.00
24825;BME280;12910;57.690;11.974;2022-08-01T08:00:31;100185.34;;;18.01;100.00
24825;BME280;12910;57.690;11.974;2022-08-01T08:02:56;100189.88;;;17.91;100.00
24825;BME280;12910;57.690;11.974;2022-08-01T08:05:25;100191.69;;;17.86;100.00
24825;BME280;12910;57.690;11.974;2022-08-01T08:07:50;100185.75;;;17.81;100.00
24825;BME280;12910;57.690;11.974;2022-08-01T08:10:15;100183.47;;;17.65;100.00
24825;BME280;12910;57.690;11.974;2022-08-01T08:12:41;100193.66;;;17.74;100.00
24825;BME280;12910;57.690;11.974;2022-08-01T08:15:06;100201.41;;;17.76;100.00
24825;BME280;12910;57.690;11.974;2022-08-01T08:17:32;100196.19;;;17.78;100.00
24825;BME280;12910;57.690;11.974;2022-08-01T08:19:58;100192.84;;;17.72;100.00
24825;BME280;12910;57.690;11.974;2022-08-01T08:22:24;100204.91;;;17.73;100.00
24825;BME280;12910;57.690;11.974;2022-08-01T08:24:49;100202.28;;;17.75;100.00
24825;BME280;12910;57.690;11.974;2022-08-01T08:27:15;100193.78;;;17.68;100.00
24825;BME280;12910;57.690;11.974;2022-08-01T08:29:41;100202.34;;;17.72;100.00
24825;BME280;12910;57.690;11.974;2022-08-01T08:32:07;100208.31;;;17.75;100.00
24825;BME280;12910;57.690;11.974;2022-08-01T08:34:33;100192.84;;;17.72;100.00
24825;BME280;12910;57.690;11.974;2022-08-01T08:36:59;100194.47;;;17.76;100.00
24825;BME280;12910;57.690;11.974;2022-08-01T08:39:25;100202.41;;;17.69;100.00
24825;BME280;12910;57.690;11.974;2022-08-01T08:41:51;100195.75;;;17.55;100.00
24825;BME280;12910;57.690;11.974;2022-08-01T08:44:17;100194.00;;;17.56;100.00
24825;BME280;12910;57.690;11.974;2022-08-01T08:46:45;100201.81;;;17.54;100.00
24825;BME280;12910;57.690;11.974;2022-08-01T08:49:13;100199.44;;;17.43;100.00
24825;BME280;12910;57.690;11.974;2022-08-01T08:51:42;100198.41;;;17.52;100.00
24825;BME280;12910;57.690;11.974;2022-08-01T08:54:07;100211.16;;;17.63;100.00
24825;BME280;12910;57.690;11.974;2022-08-01T08:56:37;100209.63;;;17.53;100.00
24825;BME280;12910;57.690;11.974;2022-08-01T08:59:03;100208.75;;;17.54;100.00
24825;BME280;12910;57.690;11.974;2022-08-01T09:01:31;100214.47;;;17.70;100.00
24825;BME280;12910;57.690;11.974;2022-08-01T09:03:57;100207.34;;;17.81;100.00
24825;BME280;12910;57.690;11.974;2022-08-01T09:06:23;100207.38;;;17.80;100.00
24825;BME280;12910;57.690;11.974;2022-08-01T09:08:49;100213.50;;;17.75;100.00
24825;BME280;12910;57.690;11.974;2022-08-01T09:11:14;100219.69;;;17.68;100.00
24825;BME280;12910;57.690;11.974;2022-08-01T09:13:40;100216.72;;;17.88;100.00
24825;BME280;12910;57.690;11.974;2022-08-01T09:16:05;100207.75;;;18.05;100.00
24825;BME280;12910;57.690;11.974;2022-08-01T09:18:39;100216.00;;;18.22;100.00
24825;BME280;12910;57.690;11.974;2022-08-01T09:23:32;100230.00;;;18.15;100.00
24825;BME280;12910;57.690;11.974;2022-08-01T09:25:58;100225.81;;;18.10;100.00
24825;BME280;12910;57.690;11.974;2022-08-01T09:28:30;100236.03;;;18.17;100.00
24825;BME280;12910;57.690;11.974;2022-08-01T09:30:58;100233.31;;;18.22;100.00
24825;BME280;12910;57.690;11.974;2022-08-01T09:33:24;100230.59;;;18.28;100.00
24825;BME280;12910;57.690;11.974;2022-08-01T09:35:56;100237.50;;;18.29;100.00
24825;BME280;12910;57.690;11.974;2022-08-01T09:38:24;100232.50;;;18.20;100.00
24825;BME280;12910;57.690;11.974;2022-08-01T09:40:57;100234.31;;;18.15;100.00
24825;BME280;12910;57.690;11.974;2022-08-01T09:43:27;100237.81;;;18.14;100.00
24825;BME280;12910;57.690;11.974;2022-08-01T09:45:54;100239.78;;;18.02;100.00
24825;BME280;12910;57.690;11.974;2022-08-01T09:48:21;100245.00;;;18.01;100.00
24825;BME280;12910;57.690;11.974;2022-08-01T09:50:49;100238.88;;;18.03;100.00
24825;BME280;12910;57.690;11.974;2022-08-01T09:53:15;100234.59;;;18.02;100.00
24825;BME280;12910;57.690;11.974;2022-08-01T09:55:42;100232.13;;;17.96;100.00
24825;BME280;12910;57.690;11.974;2022-08-01T09:58:08;100233.84;;;17.97;100.00
24825;BME280;12910;57.690;11.974;2022-08-01T10:00:36;100236.34;;;18.02;100.00
24825;BME280;12910;57.690;11.974;2022-08-01T10:03:19;100244.16;;;18.00;100.00
24825;BME280;12910;57.690;11.974;2022-08-01T10:05:45;100254.59;;;17.94;100.00
24825;BME280;12910;57.690;11.974;2022-08-01T10:08:12;100236.53;;;17.91;100.00
24825;BME280;12910;57.690;11.974;2022-08-01T10:10:38;100245.03;;;17.99;100.00
24825;BME280;12910;57.690;11.974;2022-08-01T10:13:04;100250.81;;;18.12;100.00
24825;BME280;12910;57.690;11.974;2022-08-01T10:15:30;100256.63;;;18.24;100.00
24825;BME280;12910;57.690;11.974;2022-08-01T10:17:58;100261.78;;;18.25;100.00
24825;BME280;12910;57.690;11.974;2022-08-01T10:20:30;100263.72;;;18.15;100.00
24825;BME280;12910;57.690;11.974;2022-08-01T10:23:01;100269.16;;;18.03;100.00
24825;BME280;12910;57.690;11.974;2022-08-01T10:25:28;100267.50;;;17.99;100.00
24825;BME280;12910;57.690;11.974;2022-08-01T10:27:54;100266.66;;;17.98;100.00
24825;BME280;12910;57.690;11.974;2022-08-01T10:30:23;100266.00;;;17.87;100.00
24825;BME280;12910;57.690;11.974;2022-08-01T10:32:50;100264.25;;;17.87;100.00
24825;BME280;12910;57.690;11.974;2022-08-01T10:35:18;100270.91;;;18.02;100.00
24825;BME280;12910;57.690;11.974;2022-08-01T10:37:45;100261.22;;;18.11;100.00
24825;BME280;12910;57.690;11.974;2022-08-01T10:40:12;100261.13;;;18.15;100.00
24825;BME280;12910;57.690;11.974;2022-08-01T10:42:43;100264.63;;;18.14;100.00
24825;BME280;12910;57.690;11.974;2022-08-01T10:45:13;100266.63;;;18.00;100.00
24825;BME280;12910;57.690;11.974;2022-08-01T10:47:57;100256.94;;;18.10;100.00
24825;BME280;12910;57.690;11.974;2022-08-01T10:50:31;100244.00;;;18.06;100.00
24825;BME280;12910;57.690;11.974;2022-08-01T10:58:22;100266.44;;;18.09;100.00
24825;BME280;12910;57.690;11.974;2022-08-01T11:03:41;100268.88;;;18.17;100.00
24825;BME280;12910;57.690;11.974;2022-08-01T11:06:07;100268.94;;;18.14;100.00
24825;BME280;12910;57.690;11.974;2022-08-01T11:08:41;100274.19;;;18.11;100.00
24825;BME280;12910;57.690;11.974;2022-08-01T11:11:08;100274.31;;;18.04;100.00
24825;BME280;12910;57.690;11.974;2022-08-01T11:16:28;100278.53;;;18.10;100.00
24825;BME280;12910;57.690;11.974;2022-08-01T11:18:54;100280.59;;;17.91;100.00
24825;BME280;12910;57.690;11.974;2022-08-01T11:21:19;100284.13;;;17.87;100.00
24825;BME280;12910;57.690;11.974;2022-08-01T11:23:50;100278.91;;;17.90;100.00
24825;BME280;12910;57.690;11.974;2022-08-01T11:26:17;100296.13;;;17.92;100.00
24825;BME280;12910;57.690;11.974;2022-08-01T11:28:43;100296.34;;;17.82;100.00
24825;BME280;12910;57.690;11.974;2022-08-01T11:39:10;100293.84;;;17.75;100.00
24825;BME280;12910;57.690;11.974;2022-08-01T11:41:36;100282.78;;;17.67;100.00
24825;BME280;12910;57.690;11.974;2022-08-01T11:44:05;100307.81;;;17.68;100.00
24825;BME280;12910;57.690;11.974;2022-08-01T11:52:15;100299.13;;;17.72;100.00
24825;BME280;12910;57.690;11.974;2022-08-01T11:57:13;100296.75;;;17.60;100.00
24825;BME280;12910;57.690;11.974;2022-08-01T11:59:50;100311.38;;;17.64;100.00
24825;BME280;12910;57.690;11.974;2022-08-01T12:02:32;100300.28;;;17.54;100.00
24825;BME280;12910;57.690;11.974;2022-08-01T12:05:15;100311.63;;;17.49;100.00
24825;BME280;12910;57.690;11.974;2022-08-01T12:07:43;100308.19;;;17.48;100.00
24825;BME280;12910;57.690;11.974;2022-08-01T12:10:12;100310.63;;;17.57;100.00
24825;BME280;12910;57.690;11.974;2022-08-01T12:12:46;100309.47;;;17.72;100.00
24825;BME280;12910;57.690;11.974;2022-08-01T12:15:12;100304.13;;;17.80;100.00
24825;BME280;12910;57.690;11.974;2022-08-01T12:20:10;100310.19;;;17.81;100.00
24825;BME280;12910;57.690;11.974;2022-08-01T12:22:36;100311.03;;;17.83;100.00
24825;BME280;12910;57.690;11.974;2022-08-01T12:27:32;100317.31;;;18.15;100.00
24825;BME280;12910;57.690;11.974;2022-08-01T12:29:58;100323.19;;;18.25;100.00
24825;BME280;12910;57.690;11.974;2022-08-01T12:32:32;100313.47;;;18.34;100.00
24825;BME280;12910;57.690;11.974;2022-08-01T12:35:25;100320.50;;;18.29;100.00
24825;BME280;12910;57.690;11.974;2022-08-01T12:37:57;100319.72;;;18.26;100.00
24825;BME280;12910;57.690;11.974;2022-08-01T12:40:25;100329.91;;;18.35;100.00
24825;BME280;12910;57.690;11.974;2022-08-01T12:42:53;100319.34;;;18.44;100.00
24825;BME280;12910;57.690;11.974;2022-08-01T12:45:25;100319.34;;;18.44;100.00
24825;BME280;12910;57.690;11.974;2022-08-01T12:47:55;100329.13;;;18.31;100.00
24825;BME280;12910;57.690;11.974;2022-08-01T12:50:23;100321.69;;;18.14;100.00
24825;BME280;12910;57.690;11.974;2022-08-01T12:52:51;100323.53;;;18.08;100.00
24825;BME280;12910;57.690;11.974;2022-08-01T12:55:18;100311.59;;;18.00;100.00
24825;BME280;12910;57.690;11.974;2022-08-01T12:57:50;100325.81;;;18.25;100.00
24825;BME280;12910;57.690;11.974;2022-08-01T13:00:25;100331.91;;;18.20;100.00
24825;BME280;12910;57.690;11.974;2022-08-01T13:03:03;100335.94;;;18.35;100.00
24825;BME280;12910;57.690;11.974;2022-08-01T13:05:51;100336.81;;;18.36;100.00
24825;BME280;12910;57.690;11.974;2022-08-01T13:08:21;100330.88;;;18.29;100.00
24825;BME280;12910;57.690;11.974;2022-08-01T13:10:48;100317.22;;;18.19;100.00
24825;BME280;12910;57.690;11.974;2022-08-01T13:13:16;100330.13;;;18.24;100.00
24825;BME280;12910;57.690;11.974;2022-08-01T13:15:43;100321.53;;;18.20;100.00